Terminal Aerodrome Forecast
Issued by NWS Louisville, KY

Home | Current Version | Previous Version | Text Only | Print | Product List | Glossary On
Versions: 1 2 3 4 5 6 7 8 9 10 11 12 13 14 15 16 17
000
FTUS43 KLMK 232321
TAFSDF
TAF
KSDF 232321Z 2400/2506 18009KT P6SM SCT040 BKN250
     FM240500 18011KT P6SM SCT040 BKN250 WS018/20046KT
     FM241300 18009G20KT P6SM BKN040=

USA.gov is the U.S. government's official web portal to all federal, state and local government web resources and services.